Highland-University Park's Hourly Summary for Monday, May 14, 2018
Hour Temp
(f)
RH
(%)
Solar Rad.
(MJ/m2)
Rainfall
(in)
Wind
(mph)
5/14/2018 12:00 AM 79 66 0 0 2.99
5/14/2018 1:00 AM 78 68 0 0 3.42
5/14/2018 2:00 AM 77 71 0 0 2.46
5/14/2018 3:00 AM 76 72 0 0 1.59
5/14/2018 4:00 AM 75 76 0 0 1.62
5/14/2018 5:00 AM 74 80 0 0 1.37
5/14/2018 6:00 AM 73 83 0 0 1.1
5/14/2018 7:00 AM 73 84 0.02 0 1.12
5/14/2018 8:00 AM 73 82 0.16 0 0.98
5/14/2018 9:00 AM 75 77 0.44 0 1.71
5/14/2018 10:00 AM 77 71 0.92 0 2.37
5/14/2018 11:00 AM 80 61 1.56 0 2.36
5/14/2018 12:00 PM 83 54 2.14 0 2.82
5/14/2018 1:00 PM 85 50 2.63 0 2.68
5/14/2018 2:00 PM 87 49 2.52 0 2.58
5/14/2018 3:00 PM 88 46 2.42 0 2.8
5/14/2018 4:00 PM 88 45 1.97 0 2.21
5/14/2018 5:00 PM 88 46 1.7 0 2.52
5/14/2018 6:00 PM 88 45 1.03 0 2.87
5/14/2018 7:00 PM 87 46 0.81 0 4.04
5/14/2018 8:00 PM 84 53 0.08 0 3.57
5/14/2018 9:00 PM 82 58 0 0 2.54
5/14/2018 10:00 PM 81 60 0 0 2.36
5/14/2018 11:00 PM 80 63 0 0 2.54
Data Summary 80 62 18.40 0.00 2.36